Pagina principale
METAR-TAF:

METAR-TAF

Aeroporti :

Aeroporto di Belgrado-Nikola Tesla

Belgrado, Serbia

latitudine: 44-49N, longitudine: 020-17E, altezza: 96 m

Osservazione

Il bollettino è stato emesso 37 minuti fa, alle 15:30 UTC
Vento 8 kt da nord-ovest, variando fra ovest/nord-ovest e nord
Temperature 21°C
Umidità 38%
Pressione 1019 hPa
Visibilità 10 km o più
nessuna nube inferiore a 1500 m e nessun cumulonembo

METAR: LYBE 231530Z 32008KT 290V010 CAVOK 21/06 Q1019 NOSIG

Ora: 18:07 (16:07 UTC)

Previsione

Il bollettino è stato emesso 5 ore e 7 minuti fa, alle 11:00 UTC
Previsione valida dal 23 alle 12 UTC al 24 alle 12 UTC
Vento 8 kt da ovest/nord-ovest
Visibilità 10 km o più
Nubi sparse ad un'altezza di 4000 ft
Temporaneamente
dal 23 alle 12 UTC al 23 alle 15 UTC
Vento 18 kt da nord-ovest

TAF: LYBE 231100Z 2312/2412 29008KT 9999 SCT040 TX22/2412Z TN12/2403Z TEMPO 2312/2315 32018KT

Osservazioni e previsioni meteorologiche di più di 4000 aeroporti (messaggi METAR e TAF).

Le stazioni disponibili sono rappresentate dai dischi gialli e rossi sulla carta.

Puntare il mouse per vedere il nome della stazione.

Clicca sopra per visualizzare le osservazioni e previsioni meteorologiche.

Per cambiare la mappa : fare clic sui pulsanti verdi con una croce nera per ingrandire, il pulsante verde con un trattino per diminuire, o sulla freccia verde per le mappe adiacenti.


METAR-TAF: